Latest Weather Observations for Casino

IDN60801

Issued at 9:05 pm EDT Saturday 1 November 2014 (issued every 30 minutes, with the page automatically refreshed every 10 minutes)

About weather observations | Map of weather stations | Latest weather observations for NSW | Other Formats
Station Details ID: 058208 Name: CASINO AIRPORT AWS Lat: -28.88 Lon: 153.06 Height: 20.9 m
Data from the previous 72 hours. | See also: Recent months at Casino
Date/Time
EDT
Temp
°C
App
Temp
°C
Dew
Point
Rel
Hum
%
Delta-T
°C
Wind Press
QNH
hPa
Press
MSL
hPa
Rain
since 9 am
mm
Dir
 
Spd
km/h
Gust
km/h
Spd
kts
Gust
kts
01/09:00pm 27.1 24.8 16.7 53 6.5 NNW 24 37 13 20 1007.3 1007.2 0.0
01/08:30pm 26.4 26.4 16.3 53 6.2 NNW 11 13 6 7 1007.0 1006.9 0.0
01/08:00pm 27.3 26.7 16.6 52 6.7 N 15 20 8 11 1006.7 1006.6 0.0
01/07:30pm 28.3 27.1 16.2 47 7.5 N 17 22 9 12 1005.8 1005.7 0.0
01/07:00pm 29.7 27.3 14.3 39 9.3 N 20 32 11 17 1005.2 1005.1 0.0
01/06:30pm 31.1 27.6 13.4 34 10.6 N 24 33 13 18 1004.8 1004.7 0.0
01/06:00pm 32.8 28.8 12.9 29 12.0 N 26 35 14 19 1004.7 1004.6 0.0
01/05:30pm 33.6 28.1 12.0 27 12.8 N 32 44 17 24 1004.7 1004.6 0.0
01/05:00pm 33.9 28.2 11.1 25 13.4 N 32 43 17 23 1005.0 1004.9 0.0
01/04:30pm 34.3 29.6 12.0 25 13.3 N 28 37 15 20 1005.4 1005.3 0.0
01/04:00pm 34.1 29.0 13.0 28 12.8 N 32 43 17 23 1005.8 1005.7 0.0
01/03:30pm 33.6 29.3 13.1 29 12.4 N 28 41 15 22 1006.5 1006.4 0.0
01/03:00pm 32.9 28.7 12.5 29 12.2 N 26 37 14 20 1007.3 1007.2 0.0
01/02:30pm 33.3 30.2 13.4 30 12.0 N 22 33 12 18 1007.8 1007.8 0.0
01/02:00pm 33.1 29.3 13.7 31 11.8 N 26 37 14 20 1008.7 1008.7 0.0
01/01:30pm 31.7 28.7 14.8 36 10.4 NNW 24 33 13 18 1009.7 1009.7 0.0
01/01:00pm 30.4 28.0 14.5 38 9.7 N 20 30 11 16 1010.4 1010.4 0.0
01/12:30pm 29.9 28.1 15.6 42 8.8 N 19 26 10 14 1011.2 1011.2 0.0
01/12:00pm 28.3 26.5 15.9 47 7.6 N 20 28 11 15 1011.9 1011.9 0.0
01/11:30am 28.1 26.2 15.7 46 7.6 N 20 28 11 15 1012.5 1012.5 0.0
01/11:00am 27.2 25.8 16.5 52 6.6 NNW 19 26 10 14 1013.0 1013.0 0.0
01/10:30am 25.9 24.9 16.7 57 5.7 N 17 26 9 14 1013.5 1013.5 0.0
01/10:00am 26.1 25.0 17.7 60 5.3 N 20 30 11 16 1014.2 1014.1 0.0
01/09:30am 23.5 22.7 17.0 67 4.0 N 17 22 9 12 1014.7 1014.6 0.0
01/09:00am 24.9 23.5 16.6 60 5.1 NNW 19 24 10 13 1014.5 1014.4 -
01/08:30am 24.5 23.5 16.7 61 4.8 NW 17 24 9 13 1014.5 1014.4 -
01/08:00am 24.2 25.1 16.7 63 4.6 NNW 7 11 4 6 1013.3 1013.3 -
01/07:30am 23.7 22.9 17.2 67 4.0 N 17 22 9 12 1012.4 1012.4 -
01/07:00am 23.3 22.2 17.3 69 3.7 N 19 24 10 13 1012.5 1012.5 -
01/06:30am 22.7 22.5 17.6 73 3.2 N 15 22 8 12 1012.8 1012.8 -
01/06:00am 22.4 22.8 17.3 73 3.1 NNW 11 15 6 8 1013.0 1013.0 -
01/05:30am 22.6 23.5 17.5 73 3.2 WNW 9 13 5 7 1012.9 1012.9 -
01/05:00am 22.6 22.9 17.1 71 3.4 NW 11 15 6 8 1012.6 1012.6 -
01/04:30am 23.4 22.4 17.6 70 3.6 NW 19 26 10 14 1011.9 1011.9 -
01/04:00am 23.3 23.0 17.3 69 3.7 NW 15 26 8 14 1011.9 1011.9 -
01/03:30am 22.9 23.0 17.4 71 3.4 N 13 19 7 10 1011.7 1011.7 -
01/03:00am 22.8 22.0 17.0 70 3.6 NNW 17 20 9 11 1012.1 1012.1 -
01/02:00am 23.4 21.7 17.2 68 3.8 NNW 22 33 12 18 1012.3 1012.3 0.0
01/01:30am 22.6 22.7 16.6 69 3.7 N 11 17 6 9 1012.0 1012.0 0.0
01/01:00am 23.0 22.8 16.8 68 3.8 NNW 13 20 7 11 1012.3 1012.3 0.0
01/12:30am 23.0 22.5 16.8 68 3.8 N 15 20 8 11 1012.7 1012.7 0.0
01/12:00am 23.5 22.0 16.8 66 4.1 NNW 20 30 11 16 1013.0 1013.0 0.0
 
Date/Time
EDT
Temp
°C
App
Temp
°C
Dew
Point
Rel
Hum
%
Delta-T
°C
Wind Press
QNH
hPa
Press
MSL
hPa
Rain
since 9 am
mm
Dir
 
Spd
km/h
Gust
km/h
Spd
kts
Gust
kts
31/11:30pm 23.9 21.6 16.7 64 4.4 N 24 35 13 19 1013.3 1013.3 0.0
31/11:00pm 24.1 22.9 17.1 65 4.3 NNW 19 30 10 16 1013.7 1013.6 0.0
31/10:30pm 24.2 23.2 16.7 63 4.6 NNW 17 22 9 12 1013.3 1013.3 0.0
31/10:00pm 24.5 24.6 16.5 61 4.9 N 11 15 6 8 1013.1 1013.1 0.0
31/09:30pm 24.7 24.1 16.7 61 4.9 N 15 20 8 11 1012.9 1012.9 0.0
31/09:00pm 25.0 24.4 16.7 60 5.1 N 15 19 8 10 1012.7 1012.7 0.0
31/08:30pm 25.3 25.5 16.7 59 5.3 NNE 11 17 6 9 1011.8 1011.8 0.0
31/08:00pm 26.4 26.4 17.2 57 5.7 N 13 20 7 11 1011.3 1011.3 0.0
31/07:30pm 27.2 26.1 17.4 55 6.2 NNE 19 26 10 14 1011.1 1011.1 0.0
31/07:00pm 28.2 27.1 17.7 53 6.7 NNE 20 28 11 15 1010.7 1010.7 0.0
31/06:30pm 29.2 26.8 17.4 49 7.5 NNE 26 33 14 18 1009.9 1009.9 0.0
31/06:00pm 30.8 28.9 16.8 43 8.8 ENE 22 28 12 15 1009.6 1009.6 0.0
31/05:30pm 31.0 28.7 17.7 45 8.5 ENE 26 33 14 18 1009.5 1009.5 0.0
31/05:00pm 32.2 30.2 18.4 44 8.9 ENE 26 33 14 18 1009.7 1009.7 0.0
31/04:30pm 32.5 30.3 17.9 41 9.4 E 26 33 14 18 1009.7 1009.7 0.0
31/04:00pm 33.6 31.0 17.7 38 10.3 ENE 28 37 15 20 1009.8 1009.8 0.0
31/03:30pm 33.5 30.1 16.8 36 10.6 E 30 39 16 21 1010.1 1010.1 0.0
31/03:00pm 35.1 32.9 16.9 34 11.7 E 24 33 13 18 1010.5 1010.5 0.0
31/02:30pm 35.0 33.4 13.8 28 13.0 N 15 26 8 14 1011.0 1011.0 0.0
31/02:00pm 34.4 32.9 14.3 30 12.4 N 15 24 8 13 1011.8 1011.8 0.0
31/01:30pm 34.1 32.9 14.1 30 12.3 NNW 13 20 7 11 1012.5 1012.5 0.0
31/01:00pm 33.3 32.9 16.2 36 10.8 NNW 13 22 7 12 1013.1 1013.1 0.0
31/12:30pm 33.0 33.2 16.8 38 10.3 NNW 11 24 6 13 1013.7 1013.6 0.0
31/12:00pm 30.8 30.0 16.0 40 9.2 NNW 15 24 8 13 1014.2 1014.1 0.0
31/11:30am 30.5 30.4 16.9 44 8.6 NNW 13 19 7 10 1014.8 1014.7 0.0
31/11:00am 29.4 29.4 17.2 47 7.7 NW 13 24 7 13 1015.3 1015.2 0.0
31/10:30am 28.0 27.9 17.8 54 6.5 NNW 15 20 8 11 1015.8 1015.7 0.0
31/10:00am 27.1 26.4 17.3 55 6.1 NNW 17 24 9 13 1016.2 1016.1 0.0
31/09:30am 25.4 25.0 17.1 60 5.2 NNW 15 22 8 12 1016.3 1016.2 0.0
31/09:00am 24.4 25.5 17.1 63 4.5 NNW 7 13 4 7 1016.5 1016.4 0.0
31/08:30am 22.3 23.5 16.8 71 3.4 NW 6 9 3 5 1016.6 1016.5 0.0
31/08:00am 20.5 21.6 16.7 79 2.3 SW 6 7 3 4 1016.5 1016.4 0.0
31/07:30am 18.3 20.3 16.1 87 1.3 CALM 0 0 0 0 1016.4 1016.3 0.0
31/07:00am 16.5 18.3 15.4 93 0.6 CALM 0 0 0 0 1016.1 1016.0 0.0
31/06:30am 14.2 15.2 13.1 93 0.6 CALM 0 0 0 0 1015.9 1015.8 0.0
31/06:00am 13.8 14.6 12.5 92 0.7 CALM 0 0 0 0 1015.6 1015.5 0.0
31/05:30am 13.5 14.1 11.9 90 0.9 CALM 0 0 0 0 1015.3 1015.2 0.0
31/05:00am 14.1 14.9 12.7 91 0.8 CALM 0 0 0 0 1015.1 1015.0 0.0
31/04:30am 14.6 14.5 13.3 92 0.7 SW 6 7 3 4 1014.6 1014.5 0.0
31/04:00am 15.4 16.7 14.1 92 0.7 CALM 0 0 0 0 1014.7 1014.6 0.0
31/03:30am 15.2 16.4 13.9 92 0.7 CALM 0 0 0 0 1014.7 1014.6 0.0
31/03:00am 15.1 16.2 13.6 91 0.8 CALM 0 0 0 0 1014.9 1014.8 0.0
31/02:30am 15.0 16.0 13.2 89 1.0 CALM 0 0 0 0 1015.0 1014.9 0.0
31/02:00am 16.1 17.7 14.8 92 0.7 CALM 0 0 0 0 1015.0 1014.9 0.0
31/01:30am 15.2 15.9 13.4 89 1.0 NNW 2 7 1 4 1015.3 1015.2 0.0
31/01:00am 15.5 16.2 13.5 88 1.1 S 2 7 1 4 1015.6 1015.5 0.0
31/12:30am 16.8 18.0 14.8 88 1.2 W 2 7 1 4 1015.8 1015.7 0.0
31/12:00am 17.4 18.2 14.9 85 1.4 WSW 4 7 2 4 1015.8 1015.7 0.0
 
Date/Time
EDT
Temp
°C
App
Temp
°C
Dew
Point
Rel
Hum
%
Delta-T
°C
Wind Press
QNH
hPa
Press
MSL
hPa
Rain
since 9 am
mm
Dir
 
Spd
km/h
Gust
km/h
Spd
kts
Gust
kts
30/11:30pm 17.4 19.0 14.9 85 1.4 CALM 0 0 0 0 1015.5 1015.4 0.0
30/11:00pm 18.2 19.9 15.1 82 1.8 CALM 0 0 0 0 1015.2 1015.1 0.0
30/10:30pm 18.9 19.5 15.4 80 2.1 SSE 6 7 3 4 1015.1 1015.0 0.0
30/10:00pm 19.1 18.9 15.6 80 2.1 E 11 15 6 8 1014.6 1014.5 0.0
30/09:30pm 20.0 19.5 15.8 77 2.5 ESE 13 17 7 9 1014.5 1014.4 0.0
30/09:00pm 20.5 19.5 15.7 74 2.9 ESE 15 19 8 10 1014.3 1014.2 0.0
30/08:30pm 21.2 20.4 16.0 72 3.1 ESE 15 17 8 9 1013.8 1013.7 0.0
30/08:00pm 21.7 21.3 16.2 71 3.3 ESE 13 17 7 9 1013.1 1013.1 0.0
30/07:30pm 22.1 21.1 15.5 66 3.9 E 15 17 8 9 1012.7 1012.7 0.0
30/07:00pm 23.3 21.7 15.1 60 4.9 E 17 22 9 12 1012.4 1012.4 0.0
30/06:30pm 25.0 22.4 15.0 53 6.0 ENE 22 32 12 17 1012.1 1012.1 0.0
30/06:00pm 26.2 22.6 14.3 48 7.1 ENE 26 33 14 18 1011.8 1011.8 0.0
30/05:30pm 27.6 23.5 13.9 43 8.2 E 28 33 15 18 1011.6 1011.6 0.0
30/05:00pm 28.5 24.3 13.6 40 8.9 ENE 28 41 15 22 1011.7 1011.7 0.0
30/04:30pm 29.4 25.4 14.0 39 9.3 ENE 28 35 15 19 1011.7 1011.7 0.0
30/04:00pm 31.2 27.8 14.8 37 10.1 ENE 26 37 14 20 1011.6 1011.6 0.0
30/03:30pm 31.4 28.0 13.6 33 10.7 ENE 24 30 13 16 1011.8 1011.8 0.0
30/03:00pm 31.5 30.1 12.3 31 11.3 NE 11 22 6 12 1012.1 1012.1 0.0
30/02:30pm 31.9 31.4 12.7 31 11.4 ENE 7 17 4 9 1012.6 1012.6 0.0
30/02:00pm 30.7 29.3 12.1 32 10.9 NE 11 19 6 10 1013.3 1013.3 0.0
30/01:30pm 30.3 29.1 12.7 34 10.4 N 11 19 6 10 1014.1 1014.0 0.0
30/01:00pm 29.6 28.7 13.8 38 9.5 ENE 11 15 6 8 1014.7 1014.6 0.0
30/12:30pm 28.4 27.2 12.7 38 9.2 NE 11 19 6 10 1015.4 1015.3 0.0
30/12:00pm 27.9 26.8 13.1 40 8.7 ENE 11 17 6 9 1016.0 1015.9 0.0
30/11:30am 28.4 28.2 14.6 43 8.3 NE 9 15 5 8 1016.7 1016.6 0.0
30/11:00am 26.7 26.5 14.8 48 7.2 NE 9 17 5 9 1017.1 1017.0 0.0
30/10:30am 25.4 25.6 14.8 52 6.4 NNE 7 15 4 8 1017.6 1017.5 0.0
30/10:00am 24.7 24.2 15.9 58 5.3 NNE 13 20 7 11 1017.8 1017.7 0.0
30/09:30am 23.2 23.7 15.5 62 4.6 NE 7 13 4 7 1018.4 1018.3 0.0
30/09:00am 22.0 22.5 14.9 64 4.2 WNW 6 9 3 5 1018.5 1018.4 0.0
30/08:30am 20.7 20.8 14.4 67 3.7 NW 7 9 4 5 1018.6 1018.5 0.0
30/08:00am 19.5 19.3 14.7 74 2.8 NW 9 13 5 7 1018.5 1018.4 0.0
30/07:30am 18.0 17.7 14.5 80 2.0 NW 9 11 5 6 1018.2 1018.1 0.0
30/07:00am 16.8 16.6 14.8 88 1.2 NW 9 11 5 6 1018.0 1017.9 0.0
30/06:30am 15.1 15.0 13.8 92 0.7 W 7 9 4 5 1017.8 1017.7 0.0
30/06:00am 14.1 13.9 13.0 93 0.6 W 6 7 3 4 1017.4 1017.3 0.0
30/05:30am 13.2 13.8 11.9 92 0.7 CALM 0 0 0 0 1017.1 1017.0 0.0
30/05:00am 13.2 13.8 11.8 91 0.7 CALM 0 0 0 0 1016.9 1016.8 0.0
30/04:30am 13.7 14.4 12.3 91 0.8 CALM 0 0 0 0 1017.0 1016.9 0.0
30/04:00am 14.1 14.9 12.7 91 0.8 CALM 0 0 0 0 1017.0 1016.9 0.0
30/03:30am 14.0 14.8 12.4 90 0.9 CALM 0 0 0 0 1017.1 1017.0 0.0
30/03:00am 14.3 15.2 12.9 91 0.8 CALM 0 0 0 0 1017.1 1017.0 0.0
30/02:30am 14.3 15.2 12.9 91 0.8 CALM 0 0 0 0 1017.2 1017.1 0.0
30/02:00am 14.4 15.2 12.6 89 1.0 CALM 0 0 0 0 1017.3 1017.2 0.0
30/01:30am 14.8 15.6 12.7 87 1.2 CALM 0 0 0 0 1017.6 1017.5 0.0
30/01:00am 15.3 16.2 12.8 85 1.4 CALM 0 0 0 0 1017.9 1017.8 0.0
30/12:30am 15.8 16.8 13.3 85 1.4 CALM 0 0 0 0 1018.2 1018.1 0.0
30/12:00am 15.9 16.9 13.2 84 1.5 CALM 0 0 0 0 1018.2 1018.1 0.0
 
Date/Time
EDT
Temp
°C
App
Temp
°C
Dew
Point
Rel
Hum
%
Delta-T
°C
Wind Press
QNH
hPa
Press
MSL
hPa
Rain
since 9 am
mm
Dir
 
Spd
km/h
Gust
km/h
Spd
kts
Gust
kts
29/11:30pm 16.2 16.5 13.5 84 1.5 SW 4 7 2 4 1018.3 1018.2 0.0
29/11:00pm 16.3 16.3 13.6 84 1.5 SSW 6 6 3 3 1018.2 1018.1 0.0
29/10:30pm 16.4 16.2 13.5 83 1.6 SSW 7 7 4 4 1018.1 1018.0 0.0
29/10:00pm 17.1 16.9 13.6 80 2.0 S 7 7 4 4 1018.2 1018.1 0.0
29/09:30pm 17.5 17.5 13.6 78 2.2 SSW 6 7 3 4 1018.2 1018.1 0.0

Other Formats:

Comma delimited format used in spreadsheet applications
http://www.bom.gov.au/fwo/IDN60801/IDN60801.94573.axf

JavaScript Object Notation format (JSON) in row-major order
http://www.bom.gov.au/fwo/IDN60801/IDN60801.94573.json